Time;durP1;ratioP1;P1;durP2;ratioP2;P2;SDS_P1;SDS_P2;PMS_P1;PMS_P2;Temp;Humidity;BMP_temperature;BMP_pressure;BME280_temperature;BME280_humidity;BME280_pressure;Samples;Min_cycle;Max_cycle;Signal;HPM_P1;HPM_P2
2022/01/01 00:00:16;;;;;;;437.20;131.43;;;10.90;99.90;;;;;;5083655;28;20043;-70
2022/01/01 00:02:42;;;;;;;454.25;139.68;;;10.80;99.90;;;;;;5078192;28;20098;-72
2022/01/01 00:05:10;;;;;;;461.33;136.57;;;10.80;99.90;;;;;;5073121;28;20036;-69
2022/01/01 00:07:38;;;;;;;463.50;137.90;;;10.80;99.90;;;;;;5069394;28;20040;-71
2022/01/01 00:10:05;;;;;;;464.52;133.93;;;10.70;99.90;;;;;;5078072;28;20033;-71
2022/01/01 00:12:30;;;;;;;458.55;136.05;;;10.80;99.90;;;;;;5069796;28;20048;-70
2022/01/01 00:14:56;;;;;;;457.80;140.07;;;10.70;99.90;;;;;;5071753;28;20474;-71
2022/01/01 00:17:21;;;;;;;469.00;138.15;;;10.70;99.90;;;;;;5097632;28;20032;-70
2022/01/01 00:19:47;;;;;;;471.38;146.27;;;10.60;99.90;;;;;;5087755;28;20039;-72
2022/01/01 00:22:12;;;;;;;475.88;144.85;;;10.50;99.90;;;;;;5097277;28;20044;-71
2022/01/01 00:24:38;;;;;;;487.38;148.90;;;10.50;99.90;;;;;;5091180;28;20356;-72
2022/01/01 00:27:03;;;;;;;484.27;145.23;;;10.50;99.90;;;;;;5090144;28;20058;-71
2022/01/01 00:29:29;;;;;;;489.92;153.77;;;10.50;99.90;;;;;;5087686;28;20044;-73
2022/01/01 00:31:54;;;;;;;492.55;146.75;;;10.50;99.90;;;;;;5075374;28;20039;-71
2022/01/01 00:34:20;;;;;;;454.67;134.75;;;10.50;99.90;;;;;;5091802;28;20036;-72
2022/01/01 00:36:46;;;;;;;460.63;135.88;;;10.50;99.90;;;;;;5076539;28;20047;-72
2022/01/01 00:39:11;;;;;;;448.63;129.95;;;10.50;99.90;;;;;;5056458;28;20685;-72
2022/01/01 00:41:37;;;;;;;474.85;132.95;;;10.50;99.90;;;;;;5084385;28;20140;-71
2022/01/01 00:44:04;;;;;;;438.40;125.70;;;10.50;99.90;;;;;;5091197;28;20043;-71
2022/01/01 00:46:29;;;;;;;456.08;132.20;;;10.60;99.90;;;;;;5083998;28;20103;-70
2022/01/01 00:48:55;;;;;;;454.75;131.77;;;10.60;99.90;;;;;;5092527;28;20072;-70
2022/01/01 00:51:21;;;;;;;475.67;134.82;;;10.70;99.90;;;;;;5066646;28;20038;-71
2022/01/01 00:53:47;;;;;;;500.90;145.30;;;10.70;99.90;;;;;;5090973;28;20459;-70
2022/01/01 00:56:12;;;;;;;501.75;154.48;;;10.70;99.90;;;;;;5068704;28;20040;-69
2022/01/01 00:58:38;;;;;;;504.77;155.98;;;10.60;99.90;;;;;;5093419;28;20093;-69
2022/01/01 01:01:05;;;;;;;485.15;145.05;;;10.70;99.90;;;;;;5083896;28;20046;-70
2022/01/01 01:03:30;;;;;;;482.70;140.50;;;10.60;99.90;;;;;;5083782;28;20054;-69
2022/01/01 01:05:58;;;;;;;429.88;124.25;;;10.60;99.90;;;;;;5079111;28;20461;-71
2022/01/01 01:08:24;;;;;;;437.70;121.53;;;10.60;99.90;;;;;;5073027;28;20052;-71
2022/01/01 01:10:49;;;;;;;407.33;116.25;;;10.70;99.90;;;;;;5074309;28;21464;-72
2022/01/01 01:13:16;;;;;;;374.40;108.82;;;10.70;99.90;;;;;;5077765;28;20516;-69
2022/01/01 01:15:43;;;;;;;383.60;103.18;;;10.60;99.90;;;;;;5081063;28;20071;-70
2022/01/01 01:18:09;;;;;;;382.25;101.35;;;10.70;99.90;;;;;;5090565;28;20046;-72
2022/01/01 01:20:34;;;;;;;353.52;95.43;;;10.70;99.90;;;;;;5077117;28;20028;-71
2022/01/01 01:23:00;;;;;;;339.98;91.03;;;10.70;99.90;;;;;;5078940;28;20055;-70
2022/01/01 01:25:30;;;;;;;347.33;88.72;;;10.80;99.90;;;;;;5078122;28;20122;-72
2022/01/01 01:28:04;;;;;;;320.52;84.22;;;10.80;99.90;;;;;;5092363;28;20071;-72
2022/01/01 01:30:30;;;;;;;308.42;81.50;;;10.80;99.90;;;;;;5095754;28;20656;-71
2022/01/01 01:32:56;;;;;;;294.23;76.80;;;10.80;99.90;;;;;;5093239;28;20130;-70
2022/01/01 01:35:21;;;;;;;298.98;72.80;;;10.80;99.90;;;;;;5102507;28;20144;-71
2022/01/01 01:37:47;;;;;;;293.08;75.05;;;10.90;99.90;;;;;;5093050;28;20303;-71
2022/01/01 01:40:12;;;;;;;284.50;72.15;;;10.80;99.90;;;;;;5090835;28;20071;-70
2022/01/01 01:42:38;;;;;;;290.05;71.28;;;10.80;99.90;;;;;;5090401;28;20032;-71
2022/01/01 01:45:04;;;;;;;276.95;67.85;;;10.80;99.90;;;;;;5099127;28;20033;-70
2022/01/01 01:47:36;;;;;;;277.88;69.47;;;10.80;99.90;;;;;;5090439;28;20127;-70
2022/01/01 01:50:05;;;;;;;299.63;72.18;;;10.80;99.90;;;;;;5089181;28;20474;-70
2022/01/01 01:52:34;;;;;;;297.77;79.25;;;10.80;99.90;;;;;;5070359;28;20043;-71
2022/01/01 01:55:00;;;;;;;312.42;83.22;;;10.80;99.90;;;;;;5082709;28;20142;-71
2022/01/01 01:57:27;;;;;;;328.13;85.95;;;10.80;99.90;;;;;;5082565;28;20040;-71
2022/01/01 01:59:53;;;;;;;339.35;90.78;;;10.80;99.90;;;;;;5081707;28;20083;-71
2022/01/01 02:02:18;;;;;;;376.52;97.47;;;10.80;99.90;;;;;;5089510;28;20486;-72
2022/01/01 02:04:44;;;;;;;368.35;99.80;;;10.80;99.90;;;;;;5096167;28;20105;-71
2022/01/01 02:07:11;;;;;;;383.75;99.72;;;10.80;99.90;;;;;;5084983;28;20075;-71
2022/01/01 02:09:37;;;;;;;379.80;106.10;;;10.80;99.90;;;;;;5075360;28;20078;-71
2022/01/01 02:12:04;;;;;;;406.73;111.85;;;10.80;99.90;;;;;;5087659;28;20105;-71
2022/01/01 02:14:48;;;;;;;449.83;124.55;;;10.80;99.90;;;;;;5089942;28;20043;-74
2022/01/01 02:17:14;;;;;;;468.52;134.63;;;10.80;99.90;;;;;;5090892;28;20039;-72
2022/01/01 02:19:45;;;;;;;488.50;138.98;;;10.70;99.90;;;;;;5087210;28;20044;-72
2022/01/01 02:22:11;;;;;;;481.23;145.65;;;10.70;99.90;;;;;;5086922;28;20040;-72
2022/01/01 02:24:37;;;;;;;482.02;147.75;;;10.70;99.90;;;;;;5086018;28;20085;-72
2022/01/01 02:27:02;;;;;;;498.20;150.48;;;10.70;99.90;;;;;;5094348;28;20043;-74
2022/01/01 02:29:28;;;;;;;492.05;155.05;;;10.70;99.90;;;;;;5087071;28;20028;-73
2022/01/01 02:31:54;;;;;;;500.20;154.88;;;10.70;99.90;;;;;;5084246;28;20043;-72
2022/01/01 02:34:20;;;;;;;504.38;155.70;;;10.70;99.90;;;;;;5099201;28;20050;-72
2022/01/01 02:36:46;;;;;;;511.13;157.35;;;10.70;99.90;;;;;;5076184;28;20048;-72
2022/01/01 02:39:21;;;;;;;507.40;156.57;;;10.70;99.90;;;;;;5077744;28;20101;-73
2022/01/01 02:41:48;;;;;;;526.83;155.98;;;10.60;99.90;;;;;;5091511;28;20534;-70
2022/01/01 02:44:15;;;;;;;499.33;152.40;;;10.60;99.90;;;;;;5069881;28;20039;-71
2022/01/01 02:46:40;;;;;;;513.55;158.38;;;10.60;99.90;;;;;;5089196;28;20563;-71
2022/01/01 02:49:06;;;;;;;524.50;162.50;;;10.50;99.90;;;;;;5088451;28;20126;-71
2022/01/01 02:51:32;;;;;;;522.60;162.02;;;10.50;99.90;;;;;;5087700;28;21288;-74
2022/01/01 02:53:57;;;;;;;523.80;161.75;;;10.50;99.90;;;;;;5089334;28;20103;-72
2022/01/01 02:56:24;;;;;;;525.15;159.45;;;10.50;99.90;;;;;;5091158;28;20036;-71
2022/01/01 02:58:49;;;;;;;525.45;160.13;;;10.40;99.90;;;;;;5084222;28;20036;-70
2022/01/01 03:01:15;;;;;;;542.20;160.98;;;10.40;99.90;;;;;;5096922;28;20028;-71
2022/01/01 03:03:41;;;;;;;538.05;162.63;;;10.40;99.90;;;;;;5097521;28;20038;-71
2022/01/01 03:06:07;;;;;;;543.25;161.85;;;10.40;99.90;;;;;;5091694;28;20039;-72
2022/01/01 03:08:32;;;;;;;518.65;157.90;;;10.40;99.90;;;;;;5098423;28;20481;-71
2022/01/01 03:10:58;;;;;;;524.95;167.35;;;10.40;99.90;;;;;;5074678;28;20085;-72
2022/01/01 03:13:23;;;;;;;512.28;164.35;;;10.50;99.90;;;;;;5078592;28;20517;-73
2022/01/01 03:15:49;;;;;;;525.50;156.35;;;10.60;99.90;;;;;;5090561;28;20040;-73
2022/01/01 03:18:14;;;;;;;519.95;159.90;;;10.60;99.90;;;;;;5081413;28;20417;-74
2022/01/01 03:20:40;;;;;;;507.70;170.02;;;10.70;99.90;;;;;;5073971;28;20059;-73
2022/01/01 03:23:06;;;;;;;519.58;156.85;;;10.70;99.90;;;;;;5087089;28;20039;-73
2022/01/01 03:25:31;;;;;;;497.52;150.73;;;10.70;99.90;;;;;;5089657;28;20043;-74
2022/01/01 03:27:57;;;;;;;502.08;156.40;;;10.70;99.90;;;;;;5082602;28;20031;-73
2022/01/01 03:30:22;;;;;;;503.10;149.43;;;10.80;99.90;;;;;;5076948;28;20382;-73
2022/01/01 03:32:48;;;;;;;508.30;151.48;;;10.80;99.90;;;;;;5080237;28;20040;-71
2022/01/01 03:35:14;;;;;;;492.30;143.82;;;10.80;99.90;;;;;;5091236;28;20085;-72
2022/01/01 03:37:40;;;;;;;491.13;144.05;;;10.80;99.90;;;;;;5064318;28;20049;-70
2022/01/01 03:40:06;;;;;;;497.48;140.07;;;10.80;99.90;;;;;;5088358;28;20049;-70
2022/01/01 03:42:32;;;;;;;497.80;142.70;;;10.80;99.90;;;;;;5079713;28;20383;-70
2022/01/01 03:44:58;;;;;;;490.23;141.95;;;10.80;99.90;;;;;;5086513;28;20028;-70
2022/01/01 03:47:23;;;;;;;491.80;142.35;;;10.80;99.90;;;;;;5083635;28;20067;-70
2022/01/01 03:49:51;;;;;;;493.20;143.88;;;10.80;99.90;;;;;;5086416;28;20037;-72
2022/01/01 03:52:17;;;;;;;488.20;141.65;;;10.80;99.90;;;;;;5084930;28;20039;-70
2022/01/01 03:54:43;;;;;;;498.15;139.02;;;10.80;99.90;;;;;;5085819;28;20066;-70
2022/01/01 03:57:09;;;;;;;496.48;144.13;;;10.80;99.90;;;;;;5087351;28;20044;-69
2022/01/01 03:59:34;;;;;;;465.33;135.27;;;10.80;99.90;;;;;;5083169;28;20509;-71
2022/01/01 04:02:00;;;;;;;485.70;137.05;;;10.80;99.90;;;;;;5082926;28;20071;-73
2022/01/01 04:04:26;;;;;;;479.42;134.88;;;10.90;99.90;;;;;;5071632;28;20064;-70
2022/01/01 04:06:53;;;;;;;474.55;129.55;;;10.80;99.90;;;;;;5082575;28;20479;-70
2022/01/01 04:09:18;;;;;;;482.17;131.93;;;10.80;99.90;;;;;;5074759;28;20028;-71
2022/01/01 04:11:44;;;;;;;472.73;131.95;;;10.80;99.90;;;;;;5075585;28;20040;-70
2022/01/01 04:14:16;;;;;;;462.73;127.82;;;10.80;99.90;;;;;;5082143;28;20098;-70
2022/01/01 04:16:43;;;;;;;455.02;128.15;;;10.90;99.90;;;;;;5064246;28;20491;-72
2022/01/01 04:19:09;;;;;;;459.42;125.70;;;10.80;99.90;;;;;;5085483;28;20077;-70
2022/01/01 04:21:35;;;;;;;443.95;123.22;;;10.80;99.90;;;;;;5091307;28;20048;-70
2022/01/01 04:24:02;;;;;;;468.48;124.90;;;10.80;99.90;;;;;;5067311;28;20131;-70
2022/01/01 04:26:27;;;;;;;458.75;125.88;;;10.80;99.90;;;;;;5059571;28;20028;-70
2022/01/01 04:28:53;;;;;;;455.13;125.28;;;10.90;99.90;;;;;;5063641;28;20028;-70
2022/01/01 04:31:19;;;;;;;457.88;123.85;;;10.90;99.90;;;;;;5092019;28;20059;-70
2022/01/01 04:33:44;;;;;;;460.83;124.28;;;10.90;99.90;;;;;;5090998;28;20048;-72
2022/01/01 04:36:10;;;;;;;452.15;121.00;;;10.90;99.90;;;;;;5077536;28;20142;-71
2022/01/01 04:38:38;;;;;;;465.80;126.32;;;10.90;99.90;;;;;;5076527;28;20045;-70
2022/01/01 04:41:12;;;;;;;460.90;124.50;;;10.90;99.90;;;;;;5086054;28;20091;-70
2022/01/01 04:43:38;;;;;;;461.80;127.18;;;10.90;99.90;;;;;;5078106;28;20086;-69
2022/01/01 04:46:04;;;;;;;446.17;122.65;;;11.00;99.90;;;;;;5081486;28;20048;-69
2022/01/01 04:48:30;;;;;;;472.67;124.68;;;10.90;99.90;;;;;;5084719;28;20051;-72
2022/01/01 04:50:55;;;;;;;471.92;124.05;;;11.00;99.90;;;;;;5089305;28;20036;-71
2022/01/01 04:53:21;;;;;;;461.00;124.70;;;11.00;99.90;;;;;;5083328;28;20047;-70
2022/01/01 04:55:47;;;;;;;450.08;118.85;;;11.00;99.90;;;;;;5096680;28;20550;-71
2022/01/01 04:58:13;;;;;;;447.48;114.38;;;11.00;99.90;;;;;;5077403;28;20070;-71
2022/01/01 05:00:39;;;;;;;427.33;110.85;;;11.00;99.90;;;;;;5080910;28;20068;-72
2022/01/01 05:03:04;;;;;;;434.77;107.53;;;11.00;99.90;;;;;;5095019;28;20044;-71
2022/01/01 05:05:30;;;;;;;415.30;101.63;;;11.10;99.90;;;;;;5081107;28;20040;-73
2022/01/01 05:07:55;;;;;;;394.27;92.45;;;11.00;99.90;;;;;;5080619;28;20036;-72
2022/01/01 05:10:21;;;;;;;392.75;88.93;;;11.10;99.90;;;;;;5097017;28;20032;-73
2022/01/01 05:12:46;;;;;;;377.77;83.75;;;11.10;99.90;;;;;;5084003;28;20055;-73
2022/01/01 05:15:12;;;;;;;331.95;82.47;;;11.10;99.90;;;;;;5102293;28;20459;-71
2022/01/01 05:17:38;;;;;;;318.75;80.32;;;11.20;99.90;;;;;;5085523;28;20068;-74
2022/01/01 05:20:04;;;;;;;337.45;73.93;;;11.20;99.90;;;;;;5081334;28;21423;-72
2022/01/01 05:22:30;;;;;;;322.08;69.93;;;11.20;99.90;;;;;;5083743;28;20040;-71
2022/01/01 05:24:59;;;;;;;326.38;72.55;;;11.20;99.90;;;;;;5084803;28;20182;-74
2022/01/01 05:27:26;;;;;;;311.48;70.78;;;11.20;99.90;;;;;;5083914;28;20127;-72
2022/01/01 05:29:52;;;;;;;291.15;63.40;;;11.20;99.90;;;;;;5080743;28;20032;-75
2022/01/01 05:32:17;;;;;;;313.70;61.10;;;11.20;99.90;;;;;;5080267;28;20055;-72
2022/01/01 05:34:43;;;;;;;292.60;62.92;;;11.20;99.90;;;;;;5084316;28;20048;-72
2022/01/01 05:37:08;;;;;;;291.05;62.15;;;11.30;99.90;;;;;;5064964;28;20487;-73
2022/01/01 05:39:34;;;;;;;292.55;59.40;;;11.20;99.90;;;;;;5095200;28;20390;-72
2022/01/01 05:42:01;;;;;;;282.05;61.92;;;11.20;99.90;;;;;;5100225;28;20040;-72
2022/01/01 05:44:26;;;;;;;270.45;58.42;;;11.20;99.90;;;;;;5094882;28;20273;-73
2022/01/01 05:46:53;;;;;;;264.52;55.67;;;11.20;99.90;;;;;;5082279;28;20032;-70
2022/01/01 05:49:19;;;;;;;227.57;52.63;;;11.30;99.90;;;;;;5079551;28;20503;-71
2022/01/01 05:51:45;;;;;;;220.40;50.58;;;11.30;99.90;;;;;;5089386;28;20051;-72
2022/01/01 05:54:10;;;;;;;195.38;45.28;;;11.40;99.90;;;;;;5086067;28;20039;-72
2022/01/01 05:56:36;;;;;;;212.82;47.38;;;11.40;99.90;;;;;;5082416;28;20036;-71
2022/01/01 05:59:01;;;;;;;216.90;47.15;;;11.40;99.90;;;;;;5093149;28;20043;-72
2022/01/01 06:01:27;;;;;;;206.70;46.35;;;11.40;99.90;;;;;;5082442;28;20035;-72
2022/01/01 06:03:53;;;;;;;217.93;45.63;;;11.40;99.90;;;;;;5094211;28;20040;-72
2022/01/01 06:06:18;;;;;;;224.77;45.85;;;11.40;99.90;;;;;;5093885;28;20076;-71
2022/01/01 06:08:44;;;;;;;228.32;47.35;;;11.40;99.90;;;;;;5090600;28;20072;-73
2022/01/01 06:11:09;;;;;;;222.88;45.80;;;11.40;99.90;;;;;;5095255;28;20039;-69
2022/01/01 06:13:35;;;;;;;194.82;44.67;;;11.40;99.90;;;;;;5095217;28;20036;-71
2022/01/01 06:16:00;;;;;;;209.27;46.08;;;11.40;99.90;;;;;;5084669;28;20039;-72
2022/01/01 06:18:26;;;;;;;207.05;44.70;;;11.40;99.90;;;;;;5094620;28;20444;-71
2022/01/01 06:20:51;;;;;;;218.32;45.03;;;11.40;99.90;;;;;;5083859;28;20044;-71
2022/01/01 06:23:17;;;;;;;185.43;41.17;;;11.40;99.90;;;;;;5098168;28;20047;-71
2022/01/01 06:25:42;;;;;;;197.13;41.75;;;11.50;99.90;;;;;;5083880;28;20083;-70
2022/01/01 06:28:08;;;;;;;216.23;42.35;;;11.40;99.90;;;;;;5076634;28;20032;-70
2022/01/01 06:30:33;;;;;;;178.18;40.65;;;11.40;99.90;;;;;;5091610;28;20474;-70
2022/01/01 06:33:01;;;;;;;179.40;38.75;;;11.40;99.90;;;;;;5092645;28;20047;-70
2022/01/01 06:35:26;;;;;;;183.55;38.50;;;11.40;99.90;;;;;;5094146;28;20119;-70
2022/01/01 06:37:52;;;;;;;181.73;38.97;;;11.40;99.90;;;;;;5094217;28;20128;-71
2022/01/01 06:40:18;;;;;;;193.60;40.08;;;11.40;99.90;;;;;;5094575;28;20039;-70
2022/01/01 06:42:43;;;;;;;162.07;37.75;;;11.40;99.90;;;;;;5087250;28;20084;-70
2022/01/01 06:45:09;;;;;;;182.10;39.90;;;11.40;99.90;;;;;;5094297;28;20490;-71
2022/01/01 06:47:34;;;;;;;179.23;38.92;;;11.40;99.90;;;;;;5110771;28;20070;-70
2022/01/01 06:50:00;;;;;;;162.77;39.13;;;11.40;99.90;;;;;;5075459;28;20041;-70
2022/01/01 06:52:25;;;;;;;186.55;40.28;;;11.40;99.90;;;;;;5090829;28;20044;-70
2022/01/01 06:54:51;;;;;;;182.32;41.30;;;11.40;99.90;;;;;;5092998;28;20048;-71
2022/01/01 06:57:16;;;;;;;195.02;41.85;;;11.40;99.90;;;;;;5091894;28;20478;-70
2022/01/01 06:59:42;;;;;;;177.68;41.58;;;11.40;99.90;;;;;;5087778;28;20047;-71
2022/01/01 07:02:07;;;;;;;185.63;43.13;;;11.40;99.90;;;;;;5068314;28;20115;-72
2022/01/01 07:04:33;;;;;;;189.30;44.60;;;11.40;99.90;;;;;;5089747;28;20508;-72
2022/01/01 07:10:41;;;;;;;182.00;43.47;;;11.40;99.90;;;;;;5094880;28;20038;-70
2022/01/01 07:13:07;;;;;;;187.23;43.42;;;11.40;99.90;;;;;;5095431;28;20036;-70
2022/01/01 07:15:33;;;;;;;196.68;44.17;;;11.40;99.90;;;;;;5101317;28;20497;-71
2022/01/01 07:17:58;;;;;;;205.70;46.03;;;11.40;99.90;;;;;;5113642;27;20131;-71
2022/01/01 07:20:24;;;;;;;212.45;44.92;;;11.40;99.90;;;;;;5096613;28;20048;-70
2022/01/01 07:22:49;;;;;;;175.60;44.65;;;11.40;99.90;;;;;;5103201;28;20051;-70
2022/01/01 07:25:15;;;;;;;186.23;44.65;;;11.50;99.90;;;;;;5094571;28;20403;-71
2022/01/01 07:27:41;;;;;;;175.25;43.70;;;11.50;99.90;;;;;;5080290;28;20036;-70
2022/01/01 07:30:08;;;;;;;198.45;44.80;;;11.50;99.90;;;;;;5103143;28;20039;-71
2022/01/01 07:32:38;;;;;;;192.40;44.55;;;11.50;99.90;;;;;;5075345;28;20437;-70
2022/01/01 07:35:04;;;;;;;196.25;44.20;;;11.50;99.90;;;;;;5091717;28;20032;-71
2022/01/01 07:37:30;;;;;;;201.23;45.25;;;11.50;99.90;;;;;;5099986;28;20118;-71
2022/01/01 07:39:55;;;;;;;209.35;48.15;;;11.50;99.90;;;;;;5088901;28;20040;-71
2022/01/01 07:42:21;;;;;;;204.40;46.22;;;11.50;99.90;;;;;;5087979;28;20075;-71
2022/01/01 07:44:46;;;;;;;198.35;47.20;;;11.60;99.90;;;;;;5096286;28;20044;-71
2022/01/01 07:47:12;;;;;;;199.98;48.17;;;11.60;99.90;;;;;;5092288;28;20453;-71
2022/01/01 07:49:44;;;;;;;222.20;47.72;;;11.60;99.90;;;;;;5088611;28;20383;-70
2022/01/01 07:52:09;;;;;;;201.13;47.75;;;11.60;99.90;;;;;;5097797;28;20063;-71
2022/01/01 07:54:35;;;;;;;205.52;49.70;;;11.60;99.90;;;;;;5101005;28;20174;-73
2022/01/01 07:57:01;;;;;;;217.02;50.30;;;11.60;99.90;;;;;;5098003;28;20044;-71
2022/01/01 07:59:26;;;;;;;209.60;51.22;;;11.70;99.90;;;;;;5087795;28;20052;-72
2022/01/01 08:01:52;;;;;;;198.80;49.35;;;11.70;99.90;;;;;;5095183;28;20040;-71
2022/01/01 08:04:17;;;;;;;208.50;49.40;;;11.70;99.90;;;;;;5087875;28;20032;-71
2022/01/01 08:06:43;;;;;;;195.50;48.45;;;11.70;99.90;;;;;;5087835;28;20043;-71
2022/01/01 08:09:08;;;;;;;212.30;50.83;;;11.80;99.90;;;;;;5088863;28;20044;-71
2022/01/01 08:11:34;;;;;;;189.98;46.35;;;11.80;99.90;;;;;;5088024;28;20032;-71
2022/01/01 08:14:00;;;;;;;189.00;47.80;;;11.80;99.90;;;;;;5076942;28;20189;-70
2022/01/01 08:16:25;;;;;;;194.93;47.38;;;11.70;99.90;;;;;;5091104;28;20043;-70
2022/01/01 08:18:51;;;;;;;187.75;47.50;;;11.80;99.90;;;;;;5080447;28;20448;-71
2022/01/01 08:21:17;;;;;;;180.05;46.47;;;11.70;99.90;;;;;;5087527;28;20085;-73
2022/01/01 08:23:43;;;;;;;198.00;45.60;;;11.80;99.90;;;;;;5090441;28;20047;-71
2022/01/01 08:26:09;;;;;;;198.35;48.75;;;11.80;99.90;;;;;;5104883;28;20032;-71
2022/01/01 08:28:34;;;;;;;188.80;49.30;;;11.80;99.90;;;;;;5091155;28;20036;-70
2022/01/01 08:31:01;;;;;;;193.48;47.05;;;11.80;99.90;;;;;;5094997;28;20407;-71
2022/01/01 08:33:26;;;;;;;199.90;49.95;;;11.90;99.90;;;;;;5085134;28;20048;-71
2022/01/01 08:35:52;;;;;;;199.10;47.47;;;11.80;99.90;;;;;;5081564;28;20403;-71
2022/01/01 08:38:17;;;;;;;179.45;46.45;;;11.90;99.90;;;;;;5078072;28;20394;-71
2022/01/01 08:40:43;;;;;;;199.35;47.45;;;11.90;99.90;;;;;;5083268;28;20494;-71
2022/01/01 08:43:08;;;;;;;189.88;48.35;;;11.90;99.90;;;;;;5103408;28;20050;-70
2022/01/01 08:45:36;;;;;;;186.90;47.00;;;11.90;99.90;;;;;;5102574;28;20043;-71
2022/01/01 08:48:02;;;;;;;177.48;46.85;;;12.00;99.90;;;;;;5086851;28;20135;-71
2022/01/01 08:50:27;;;;;;;174.75;45.03;;;12.00;99.90;;;;;;5094218;28;20110;-71
2022/01/01 08:52:53;;;;;;;181.38;47.20;;;12.00;99.90;;;;;;5103473;28;20128;-70
2022/01/01 08:55:18;;;;;;;173.95;47.25;;;12.00;99.90;;;;;;5085875;28;20060;-71
2022/01/01 08:57:44;;;;;;;166.85;43.90;;;12.10;99.90;;;;;;5087826;28;20036;-72
2022/01/01 09:00:11;;;;;;;156.65;40.47;;;12.10;99.90;;;;;;5088809;28;20040;-72
2022/01/01 09:02:37;;;;;;;163.85;42.08;;;12.10;99.90;;;;;;5089930;28;20436;-71
2022/01/01 09:05:03;;;;;;;161.52;41.60;;;12.10;99.90;;;;;;5088847;28;20036;-71
2022/01/01 09:07:31;;;;;;;142.45;41.45;;;12.10;99.90;;;;;;5078521;28;20036;-72
2022/01/01 09:09:59;;;;;;;153.10;41.13;;;12.00;99.90;;;;;;5077708;28;20063;-71
2022/01/01 09:12:26;;;;;;;149.25;39.25;;;12.10;99.90;;;;;;5089102;28;20126;-70
2022/01/01 09:14:52;;;;;;;147.70;40.30;;;12.10;99.90;;;;;;5090464;28;20040;-71
2022/01/01 09:17:17;;;;;;;137.48;37.47;;;12.10;99.90;;;;;;5085651;28;20037;-71
2022/01/01 09:19:43;;;;;;;139.75;39.60;;;12.20;99.90;;;;;;5083160;28;20044;-72
2022/01/01 09:22:08;;;;;;;139.55;35.95;;;12.20;99.90;;;;;;5076644;28;20070;-72
2022/01/01 09:24:35;;;;;;;128.90;35.83;;;12.20;99.90;;;;;;5094866;28;20036;-72
2022/01/01 09:27:01;;;;;;;125.50;34.63;;;12.30;99.90;;;;;;5089831;28;20498;-71
2022/01/01 09:29:26;;;;;;;127.10;34.10;;;12.30;99.90;;;;;;5097687;28;20032;-72
2022/01/01 09:31:52;;;;;;;115.18;33.88;;;12.30;99.90;;;;;;5092876;28;20039;-70
2022/01/01 09:34:18;;;;;;;106.90;33.58;;;12.30;99.90;;;;;;5099551;28;20037;-72
2022/01/01 09:36:43;;;;;;;108.13;31.55;;;12.40;99.90;;;;;;5092965;28;20032;-70
2022/01/01 09:39:09;;;;;;;105.97;29.50;;;12.40;99.90;;;;;;5076925;28;20103;-71
2022/01/01 09:41:40;;;;;;;100.85;30.33;;;12.50;99.90;;;;;;5093923;28;20038;-70
2022/01/01 09:44:15;;;;;;;96.25;28.38;;;12.50;99.90;;;;;;5093827;28;20119;-71
2022/01/01 09:46:44;;;;;;;90.32;27.23;;;12.50;99.90;;;;;;5076069;28;20083;-70
2022/01/01 09:49:12;;;;;;;86.93;26.38;;;12.50;99.90;;;;;;5091149;28;20036;-71
2022/01/01 09:51:37;;;;;;;98.10;26.73;;;12.60;99.90;;;;;;5070214;28;20506;-70
2022/01/01 09:54:03;;;;;;;80.38;25.40;;;12.60;99.90;;;;;;5101554;28;20036;-71
2022/01/01 09:56:29;;;;;;;93.05;26.33;;;12.50;99.90;;;;;;5105751;28;20032;-70
2022/01/01 09:58:55;;;;;;;78.28;23.67;;;12.60;99.90;;;;;;5092659;28;20036;-71
2022/01/01 10:01:21;;;;;;;80.47;23.25;;;12.60;99.90;;;;;;5085041;28;20051;-71
2022/01/01 10:03:50;;;;;;;73.78;22.90;;;12.50;99.90;;;;;;5097704;28;20028;-72
2022/01/01 10:06:18;;;;;;;72.15;21.42;;;12.50;99.90;;;;;;5082277;28;20084;-71
2022/01/01 10:08:58;;;;;;;68.75;21.40;;;12.50;99.90;;;;;;5088604;28;20045;-71
2022/01/01 10:11:24;;;;;;;63.38;20.52;;;12.50;99.90;;;;;;5077588;28;20051;-71
2022/01/01 10:13:50;;;;;;;65.80;19.60;;;12.40;99.90;;;;;;5092375;28;20111;-71
2022/01/01 10:16:20;;;;;;;67.10;20.02;;;12.40;99.90;;;;;;5074247;28;20103;-71
2022/01/01 10:18:48;;;;;;;66.97;19.17;;;12.40;99.90;;;;;;5103123;28;20036;-71
2022/01/01 10:21:19;;;;;;;67.20;18.88;;;12.40;99.90;;;;;;5090623;28;20051;-71
2022/01/01 10:23:49;;;;;;;66.70;19.83;;;12.40;99.90;;;;;;5091857;28;20101;-71
2022/01/01 10:29:17;;;;;;;60.63;18.95;;;12.40;99.90;;;;;;5088784;28;20121;-71
2022/01/01 10:32:02;;;;;;;68.35;17.33;;;12.40;99.90;;;;;;5094016;28;20128;-70
2022/01/01 10:34:36;;;;;;;51.80;16.23;;;12.40;99.90;;;;;;5073648;28;20038;-70
2022/01/01 10:37:05;;;;;;;47.28;15.48;;;12.40;99.90;;;;;;5094051;28;20398;-70
2022/01/01 10:39:31;;;;;;;52.17;15.55;;;12.40;99.90;;;;;;5081973;28;20032;-71
2022/01/01 10:41:58;;;;;;;49.50;15.73;;;12.40;99.90;;;;;;5093292;28;20036;-72
2022/01/01 10:44:30;;;;;;;58.08;16.65;;;12.40;99.90;;;;;;5092362;28;20075;-72
2022/01/01 10:46:57;;;;;;;46.38;15.13;;;12.40;99.90;;;;;;5074248;28;20037;-71
2022/01/01 10:49:32;;;;;;;55.95;15.32;;;12.40;99.90;;;;;;5090134;28;20475;-71
2022/01/01 10:52:19;;;;;;;56.13;15.32;;;12.40;99.90;;;;;;5090455;28;20036;-71
2022/01/01 10:55:06;;;;;;;49.60;14.80;;;12.40;99.90;;;;;;5093676;28;20032;-71
2022/01/01 10:57:37;;;;;;;55.85;15.65;;;12.30;99.90;;;;;;5075915;28;20038;-70
2022/01/01 11:00:08;;;;;;;54.40;15.05;;;12.40;99.90;;;;;;5083621;28;20085;-71
2022/01/01 11:02:36;;;;;;;52.25;14.73;;;12.40;99.90;;;;;;5106819;28;20032;-71
2022/01/01 11:05:03;;;;;;;55.03;14.63;;;12.30;99.90;;;;;;5073454;28;20483;-71
2022/01/01 11:07:32;;;;;;;51.28;14.75;;;12.30;99.90;;;;;;5074310;28;20436;-71
2022/01/01 11:09:59;;;;;;;45.50;14.05;;;12.40;99.90;;;;;;5091008;28;20036;-71
2022/01/01 11:12:27;;;;;;;52.28;14.05;;;12.40;99.90;;;;;;5063854;28;20114;-72
2022/01/01 11:14:53;;;;;;;53.72;14.90;;;12.40;99.90;;;;;;5092073;28;20040;-71
2022/01/01 11:17:20;;;;;;;53.08;14.23;;;12.40;99.90;;;;;;5091426;28;20043;-71
2022/01/01 11:19:47;;;;;;;50.45;13.32;;;12.40;99.90;;;;;;5092608;28;20039;-70
2022/01/01 11:22:14;;;;;;;45.13;12.75;;;12.50;99.90;;;;;;5075620;28;20215;-71
2022/01/01 11:24:41;;;;;;;52.45;13.57;;;12.50;99.90;;;;;;5090287;28;20035;-71
2022/01/01 11:27:08;;;;;;;48.40;13.95;;;12.50;99.90;;;;;;5088302;28;20169;-70
2022/01/01 11:29:34;;;;;;;50.30;13.32;;;12.60;99.90;;;;;;5088261;28;20036;-71
2022/01/01 11:32:03;;;;;;;46.45;14.23;;;12.60;99.90;;;;;;5088995;28;20032;-70
2022/01/01 11:34:31;;;;;;;48.88;13.35;;;12.60;99.90;;;;;;5082499;28;20399;-71
2022/01/01 11:36:57;;;;;;;43.70;14.75;;;12.70;99.90;;;;;;5078854;28;20528;-72
2022/01/01 11:39:28;;;;;;;52.85;14.48;;;12.70;99.90;;;;;;5089623;28;20036;-70
2022/01/01 11:42:09;;;;;;;46.85;13.30;;;12.80;99.90;;;;;;5086623;28;20383;-71
2022/01/01 11:44:37;;;;;;;47.13;13.23;;;12.80;99.90;;;;;;5089781;28;20044;-71
2022/01/01 11:47:05;;;;;;;49.17;13.43;;;12.90;99.90;;;;;;5089868;28;20398;-71
2022/01/01 11:49:32;;;;;;;47.28;13.52;;;12.90;99.90;;;;;;5087684;28;20048;-69
2022/01/01 11:52:01;;;;;;;45.35;13.30;;;12.90;99.90;;;;;;5054914;28;20104;-71
2022/01/01 11:54:32;;;;;;;40.28;13.70;;;12.90;99.90;;;;;;5090247;28;20047;-70
2022/01/01 11:57:09;;;;;;;53.75;13.63;;;13.00;99.90;;;;;;5090185;28;20039;-71
2022/01/01 11:59:37;;;;;;;50.83;13.43;;;12.90;99.90;;;;;;5088173;28;20402;-71
2022/01/01 12:02:18;;;;;;;45.55;13.60;;;12.90;99.90;;;;;;5083724;28;20063;-69
2022/01/01 12:04:45;;;;;;;41.38;14.18;;;12.90;99.90;;;;;;5089736;28;20043;-71
2022/01/01 12:07:26;;;;;;;51.33;14.07;;;12.90;99.90;;;;;;5090033;28;20043;-71
2022/01/01 12:09:55;;;;;;;41.65;12.90;;;12.90;99.90;;;;;;5091826;28;20392;-71
2022/01/01 12:12:49;;;;;;;43.85;13.70;;;12.90;99.90;;;;;;5088747;28;20047;-70
2022/01/01 12:15:24;;;;;;;46.22;13.95;;;13.00;99.90;;;;;;5073278;28;20436;-70
2022/01/01 12:18:13;;;;;;;46.28;13.45;;;12.90;99.90;;;;;;5086535;28;20044;-70
2022/01/01 12:20:57;;;;;;;43.55;13.98;;;12.90;99.90;;;;;;5091366;28;20051;-70